sensor_id;sensor_type;location;lat;lon;timestamp;P1;durP1;ratioP1;P2;durP2;ratioP2
30519;SDS011;17300;50.374;8.006;2023-06-04T00:00:30;1.30;;;1.20;;
30519;SDS011;17300;50.374;8.006;2023-06-04T00:02:57;1.93;;;1.60;;
30519;SDS011;17300;50.374;8.006;2023-06-04T00:05:23;1.40;;;1.30;;
30519;SDS011;17300;50.374;8.006;2023-06-04T00:07:50;1.30;;;1.20;;
30519;SDS011;17300;50.374;8.006;2023-06-04T00:10:17;1.23;;;1.13;;
30519;SDS011;17300;50.374;8.006;2023-06-04T00:12:44;1.90;;;1.47;;
30519;SDS011;17300;50.374;8.006;2023-06-04T00:15:12;1.60;;;1.40;;
30519;SDS011;17300;50.374;8.006;2023-06-04T00:17:40;1.73;;;1.23;;
30519;SDS011;17300;50.374;8.006;2023-06-04T00:20:07;1.37;;;1.27;;
30519;SDS011;17300;50.374;8.006;2023-06-04T00:22:34;1.40;;;1.30;;
30519;SDS011;17300;50.374;8.006;2023-06-04T00:25:00;1.50;;;1.30;;
30519;SDS011;17300;50.374;8.006;2023-06-04T00:27:28;1.37;;;1.27;;
30519;SDS011;17300;50.374;8.006;2023-06-04T00:29:55;1.00;;;1.00;;
30519;SDS011;17300;50.374;8.006;2023-06-04T00:32:22;1.33;;;1.20;;
30519;SDS011;17300;50.374;8.006;2023-06-04T00:34:53;1.50;;;1.40;;
30519;SDS011;17300;50.374;8.006;2023-06-04T00:37:22;1.60;;;1.40;;
30519;SDS011;17300;50.374;8.006;2023-06-04T00:39:50;1.90;;;1.37;;
30519;SDS011;17300;50.374;8.006;2023-06-04T00:42:17;1.50;;;1.20;;
30519;SDS011;17300;50.374;8.006;2023-06-04T00:44:43;1.30;;;1.13;;
30519;SDS011;17300;50.374;8.006;2023-06-04T00:47:11;1.80;;;1.30;;
30519;SDS011;17300;50.374;8.006;2023-06-04T00:49:39;1.93;;;1.20;;
30519;SDS011;17300;50.374;8.006;2023-06-04T00:52:06;1.23;;;1.13;;
30519;SDS011;17300;50.374;8.006;2023-06-04T00:54:34;1.30;;;1.20;;
30519;SDS011;17300;50.374;8.006;2023-06-04T00:57:02;1.30;;;1.20;;
30519;SDS011;17300;50.374;8.006;2023-06-04T00:59:29;2.20;;;1.30;;
30519;SDS011;17300;50.374;8.006;2023-06-04T01:01:58;1.50;;;1.03;;
30519;SDS011;17300;50.374;8.006;2023-06-04T01:04:29;1.47;;;1.37;;
30519;SDS011;17300;50.374;8.006;2023-06-04T01:07:00;1.07;;;0.97;;
30519;SDS011;17300;50.374;8.006;2023-06-04T01:09:30;1.20;;;1.10;;
30519;SDS011;17300;50.374;8.006;2023-06-04T01:11:57;1.80;;;1.10;;
30519;SDS011;17300;50.374;8.006;2023-06-04T01:14:26;1.10;;;1.10;;
30519;SDS011;17300;50.374;8.006;2023-06-04T01:16:55;1.63;;;1.37;;
30519;SDS011;17300;50.374;8.006;2023-06-04T01:19:36;1.20;;;1.10;;
30519;SDS011;17300;50.374;8.006;2023-06-04T01:22:28;1.13;;;1.00;;
30519;SDS011;17300;50.374;8.006;2023-06-04T01:25:02;4.80;;;1.20;;
30519;SDS011;17300;50.374;8.006;2023-06-04T01:27:30;2.10;;;1.27;;
30519;SDS011;17300;50.374;8.006;2023-06-04T01:29:57;1.27;;;1.00;;
30519;SDS011;17300;50.374;8.006;2023-06-04T01:32:25;1.43;;;1.33;;
30519;SDS011;17300;50.374;8.006;2023-06-04T01:34:52;1.10;;;1.00;;
30519;SDS011;17300;50.374;8.006;2023-06-04T01:37:20;1.20;;;1.10;;
30519;SDS011;17300;50.374;8.006;2023-06-04T01:39:48;1.23;;;1.13;;
30519;SDS011;17300;50.374;8.006;2023-06-04T01:42:15;1.40;;;1.30;;
30519;SDS011;17300;50.374;8.006;2023-06-04T01:44:42;1.20;;;1.10;;
30519;SDS011;17300;50.374;8.006;2023-06-04T01:47:08;1.77;;;1.10;;
30519;SDS011;17300;50.374;8.006;2023-06-04T01:49:35;1.20;;;1.00;;
30519;SDS011;17300;50.374;8.006;2023-06-04T01:52:02;2.03;;;1.13;;
30519;SDS011;17300;50.374;8.006;2023-06-04T01:54:30;1.17;;;1.07;;
30519;SDS011;17300;50.374;8.006;2023-06-04T01:57:00;1.30;;;1.20;;
30519;SDS011;17300;50.374;8.006;2023-06-04T01:59:28;1.13;;;1.00;;
30519;SDS011;17300;50.374;8.006;2023-06-04T02:01:57;2.00;;;1.03;;
30519;SDS011;17300;50.374;8.006;2023-06-04T02:04:23;1.67;;;1.07;;
30519;SDS011;17300;50.374;8.006;2023-06-04T02:06:50;1.10;;;1.00;;
30519;SDS011;17300;50.374;8.006;2023-06-04T02:09:17;1.50;;;1.00;;
30519;SDS011;17300;50.374;8.006;2023-06-04T02:11:43;1.20;;;1.10;;
30519;SDS011;17300;50.374;8.006;2023-06-04T02:14:11;1.40;;;1.07;;
30519;SDS011;17300;50.374;8.006;2023-06-04T02:16:38;1.30;;;1.20;;
30519;SDS011;17300;50.374;8.006;2023-06-04T02:19:05;1.27;;;1.10;;
30519;SDS011;17300;50.374;8.006;2023-06-04T02:21:32;1.20;;;1.10;;
30519;SDS011;17300;50.374;8.006;2023-06-04T02:23:58;1.00;;;0.90;;
30519;SDS011;17300;50.374;8.006;2023-06-04T02:26:25;1.43;;;1.33;;
30519;SDS011;17300;50.374;8.006;2023-06-04T02:28:51;1.20;;;1.00;;
30519;SDS011;17300;50.374;8.006;2023-06-04T02:31:19;1.07;;;0.97;;
30519;SDS011;17300;50.374;8.006;2023-06-04T02:33:46;1.37;;;1.07;;
30519;SDS011;17300;50.374;8.006;2023-06-04T02:36:13;1.90;;;1.10;;
30519;SDS011;17300;50.374;8.006;2023-06-04T02:38:40;1.50;;;1.03;;
30519;SDS011;17300;50.374;8.006;2023-06-04T02:41:07;0.80;;;0.80;;
30519;SDS011;17300;50.374;8.006;2023-06-04T02:43:34;0.90;;;0.90;;
30519;SDS011;17300;50.374;8.006;2023-06-04T02:46:00;0.90;;;0.90;;
30519;SDS011;17300;50.374;8.006;2023-06-04T02:48:28;1.27;;;1.10;;
30519;SDS011;17300;50.374;8.006;2023-06-04T02:50:55;0.90;;;0.80;;
30519;SDS011;17300;50.374;8.006;2023-06-04T02:53:22;1.37;;;1.23;;
30519;SDS011;17300;50.374;8.006;2023-06-04T02:55:48;2.87;;;1.20;;
30519;SDS011;17300;50.374;8.006;2023-06-04T02:58:17;1.10;;;1.00;;
30519;SDS011;17300;50.374;8.006;2023-06-04T03:00:44;0.90;;;0.90;;
30519;SDS011;17300;50.374;8.006;2023-06-04T03:03:10;0.97;;;0.93;;
30519;SDS011;17300;50.374;8.006;2023-06-04T03:05:38;1.37;;;1.00;;
30519;SDS011;17300;50.374;8.006;2023-06-04T03:08:05;1.10;;;1.00;;
30519;SDS011;17300;50.374;8.006;2023-06-04T03:10:32;1.20;;;1.10;;
30519;SDS011;17300;50.374;8.006;2023-06-04T03:12:58;1.13;;;1.03;;
30519;SDS011;17300;50.374;8.006;2023-06-04T03:15:25;1.20;;;1.07;;
30519;SDS011;17300;50.374;8.006;2023-06-04T03:17:52;1.00;;;1.00;;
30519;SDS011;17300;50.374;8.006;2023-06-04T03:20:18;0.80;;;0.80;;
30519;SDS011;17300;50.374;8.006;2023-06-04T03:22:50;1.30;;;1.20;;
30519;SDS011;17300;50.374;8.006;2023-06-04T03:25:17;1.00;;;1.00;;
30519;SDS011;17300;50.374;8.006;2023-06-04T03:27:44;3.90;;;1.10;;
30519;SDS011;17300;50.374;8.006;2023-06-04T03:30:11;0.90;;;0.90;;
30519;SDS011;17300;50.374;8.006;2023-06-04T03:32:37;0.93;;;0.93;;
30519;SDS011;17300;50.374;8.006;2023-06-04T03:35:05;0.80;;;0.80;;
30519;SDS011;17300;50.374;8.006;2023-06-04T03:37:32;1.37;;;1.10;;
30519;SDS011;17300;50.374;8.006;2023-06-04T03:40:00;1.63;;;1.10;;
30519;SDS011;17300;50.374;8.006;2023-06-04T03:42:31;1.10;;;1.00;;
30519;SDS011;17300;50.374;8.006;2023-06-04T03:44:57;1.47;;;1.13;;
30519;SDS011;17300;50.374;8.006;2023-06-04T03:47:24;1.10;;;1.00;;
30519;SDS011;17300;50.374;8.006;2023-06-04T03:49:51;0.93;;;0.90;;
30519;SDS011;17300;50.374;8.006;2023-06-04T03:52:17;0.90;;;0.90;;
30519;SDS011;17300;50.374;8.006;2023-06-04T03:54:44;1.47;;;1.10;;
30519;SDS011;17300;50.374;8.006;2023-06-04T03:57:12;1.07;;;1.00;;
30519;SDS011;17300;50.374;8.006;2023-06-04T03:59:38;1.17;;;1.03;;
30519;SDS011;17300;50.374;8.006;2023-06-04T04:02:05;1.33;;;1.00;;
30519;SDS011;17300;50.374;8.006;2023-06-04T04:04:32;1.17;;;1.07;;
30519;SDS011;17300;50.374;8.006;2023-06-04T04:06:59;1.20;;;1.10;;
30519;SDS011;17300;50.374;8.006;2023-06-04T04:09:25;1.37;;;0.90;;
30519;SDS011;17300;50.374;8.006;2023-06-04T04:11:52;1.20;;;1.00;;
30519;SDS011;17300;50.374;8.006;2023-06-04T04:14:20;1.30;;;1.20;;
30519;SDS011;17300;50.374;8.006;2023-06-04T04:16:47;1.20;;;1.10;;
30519;SDS011;17300;50.374;8.006;2023-06-04T04:19:13;1.10;;;1.00;;
30519;SDS011;17300;50.374;8.006;2023-06-04T04:21:40;1.23;;;1.13;;
30519;SDS011;17300;50.374;8.006;2023-06-04T04:24:07;1.20;;;1.00;;
30519;SDS011;17300;50.374;8.006;2023-06-04T04:26:34;1.73;;;1.27;;
30519;SDS011;17300;50.374;8.006;2023-06-04T04:29:01;2.07;;;1.10;;
30519;SDS011;17300;50.374;8.006;2023-06-04T04:31:30;1.67;;;1.10;;
30519;SDS011;17300;50.374;8.006;2023-06-04T04:33:57;1.63;;;1.20;;
30519;SDS011;17300;50.374;8.006;2023-06-04T04:36:25;1.40;;;1.30;;
30519;SDS011;17300;50.374;8.006;2023-06-04T04:38:52;1.10;;;1.07;;
30519;SDS011;17300;50.374;8.006;2023-06-04T04:41:20;1.03;;;0.93;;
30519;SDS011;17300;50.374;8.006;2023-06-04T04:43:47;1.27;;;1.17;;
30519;SDS011;17300;50.374;8.006;2023-06-04T04:46:14;1.37;;;1.27;;
30519;SDS011;17300;50.374;8.006;2023-06-04T04:48:42;1.47;;;1.13;;
30519;SDS011;17300;50.374;8.006;2023-06-04T04:51:09;1.50;;;1.40;;
30519;SDS011;17300;50.374;8.006;2023-06-04T04:53:35;1.17;;;1.07;;
30519;SDS011;17300;50.374;8.006;2023-06-04T04:56:02;1.20;;;1.10;;
30519;SDS011;17300;50.374;8.006;2023-06-04T04:58:28;1.20;;;1.10;;
30519;SDS011;17300;50.374;8.006;2023-06-04T05:00:55;1.00;;;1.00;;
30519;SDS011;17300;50.374;8.006;2023-06-04T05:03:22;4.37;;;1.40;;
30519;SDS011;17300;50.374;8.006;2023-06-04T05:05:50;1.13;;;1.00;;
30519;SDS011;17300;50.374;8.006;2023-06-04T05:08:16;1.10;;;1.00;;
30519;SDS011;17300;50.374;8.006;2023-06-04T05:10:43;1.30;;;1.20;;
30519;SDS011;17300;50.374;8.006;2023-06-04T05:13:10;1.37;;;1.13;;
30519;SDS011;17300;50.374;8.006;2023-06-04T05:15:36;1.63;;;1.20;;
30519;SDS011;17300;50.374;8.006;2023-06-04T05:18:04;1.30;;;1.20;;
30519;SDS011;17300;50.374;8.006;2023-06-04T05:20:32;1.20;;;1.10;;
30519;SDS011;17300;50.374;8.006;2023-06-04T05:23:01;1.27;;;0.93;;
30519;SDS011;17300;50.374;8.006;2023-06-04T05:25:29;1.40;;;1.30;;
30519;SDS011;17300;50.374;8.006;2023-06-04T05:27:56;2.27;;;1.20;;
30519;SDS011;17300;50.374;8.006;2023-06-04T05:30:23;1.30;;;1.20;;
30519;SDS011;17300;50.374;8.006;2023-06-04T05:32:49;1.20;;;1.10;;
30519;SDS011;17300;50.374;8.006;2023-06-04T05:35:18;1.13;;;1.03;;
30519;SDS011;17300;50.374;8.006;2023-06-04T05:37:45;1.23;;;1.13;;
30519;SDS011;17300;50.374;8.006;2023-06-04T05:40:20;1.03;;;0.90;;
30519;SDS011;17300;50.374;8.006;2023-06-04T05:42:47;1.10;;;0.90;;
30519;SDS011;17300;50.374;8.006;2023-06-04T05:45:14;1.00;;;0.97;;
30519;SDS011;17300;50.374;8.006;2023-06-04T05:47:41;1.10;;;1.00;;
30519;SDS011;17300;50.374;8.006;2023-06-04T05:50:08;0.98;;;0.95;;
30519;SDS011;17300;50.374;8.006;2023-06-04T05:52:35;1.10;;;0.90;;
30519;SDS011;17300;50.374;8.006;2023-06-04T05:55:03;0.85;;;0.82;;
30519;SDS011;17300;50.374;8.006;2023-06-04T05:57:33;1.10;;;1.00;;
30519;SDS011;17300;50.374;8.006;2023-06-04T06:00:00;1.67;;;0.90;;
30519;SDS011;17300;50.374;8.006;2023-06-04T06:02:27;2.08;;;0.90;;
30519;SDS011;17300;50.374;8.006;2023-06-04T06:04:53;1.20;;;1.10;;
30519;SDS011;17300;50.374;8.006;2023-06-04T06:07:21;1.20;;;1.10;;
30519;SDS011;17300;50.374;8.006;2023-06-04T06:09:47;1.25;;;1.10;;
30519;SDS011;17300;50.374;8.006;2023-06-04T06:12:14;1.30;;;1.20;;
30519;SDS011;17300;50.374;8.006;2023-06-04T06:14:42;0.90;;;0.90;;
30519;SDS011;17300;50.374;8.006;2023-06-04T06:17:09;2.67;;;1.20;;
30519;SDS011;17300;50.374;8.006;2023-06-04T06:19:35;1.45;;;1.10;;
30519;SDS011;17300;50.374;8.006;2023-06-04T06:22:02;0.80;;;0.80;;
30519;SDS011;17300;50.374;8.006;2023-06-04T06:24:29;1.20;;;1.10;;
30519;SDS011;17300;50.374;8.006;2023-06-04T06:26:56;1.33;;;1.20;;
30519;SDS011;17300;50.374;8.006;2023-06-04T06:29:23;1.20;;;1.10;;
30519;SDS011;17300;50.374;8.006;2023-06-04T06:31:51;1.80;;;1.23;;
30519;SDS011;17300;50.374;8.006;2023-06-04T06:34:18;1.00;;;0.90;;
30519;SDS011;17300;50.374;8.006;2023-06-04T06:36:45;1.23;;;1.08;;
30519;SDS011;17300;50.374;8.006;2023-06-04T06:39:12;1.25;;;1.10;;
30519;SDS011;17300;50.374;8.006;2023-06-04T06:41:39;1.15;;;1.00;;
30519;SDS011;17300;50.374;8.006;2023-06-04T06:44:06;1.60;;;1.35;;
30519;SDS011;17300;50.374;8.006;2023-06-04T06:46:32;1.30;;;1.20;;
30519;SDS011;17300;50.374;8.006;2023-06-04T06:49:00;0.98;;;0.98;;
30519;SDS011;17300;50.374;8.006;2023-06-04T06:51:27;1.02;;;1.00;;
30519;SDS011;17300;50.374;8.006;2023-06-04T06:53:54;1.60;;;0.95;;
30519;SDS011;17300;50.374;8.006;2023-06-04T06:56:20;2.45;;;1.17;;
30519;SDS011;17300;50.374;8.006;2023-06-04T06:58:47;2.05;;;1.15;;
30519;SDS011;17300;50.374;8.006;2023-06-04T07:01:14;1.67;;;1.10;;
30519;SDS011;17300;50.374;8.006;2023-06-04T07:03:40;1.10;;;1.05;;
30519;SDS011;17300;50.374;8.006;2023-06-04T07:06:08;1.05;;;1.00;;
30519;SDS011;17300;50.374;8.006;2023-06-04T07:08:35;0.98;;;0.98;;
30519;SDS011;17300;50.374;8.006;2023-06-04T07:11:02;1.35;;;1.08;;
30519;SDS011;17300;50.374;8.006;2023-06-04T07:13:29;1.45;;;1.10;;
30519;SDS011;17300;50.374;8.006;2023-06-04T07:15:57;1.35;;;1.25;;
30519;SDS011;17300;50.374;8.006;2023-06-04T07:18:24;1.05;;;0.98;;
30519;SDS011;17300;50.374;8.006;2023-06-04T07:20:50;1.10;;;1.10;;
30519;SDS011;17300;50.374;8.006;2023-06-04T07:23:19;0.95;;;0.93;;
30519;SDS011;17300;50.374;8.006;2023-06-04T07:25:45;0.98;;;0.98;;
30519;SDS011;17300;50.374;8.006;2023-06-04T07:28:12;1.30;;;1.20;;
30519;SDS011;17300;50.374;8.006;2023-06-04T07:30:39;1.35;;;1.10;;
30519;SDS011;17300;50.374;8.006;2023-06-04T07:33:06;1.20;;;1.10;;
30519;SDS011;17300;50.374;8.006;2023-06-04T07:35:32;1.48;;;0.93;;
30519;SDS011;17300;50.374;8.006;2023-06-04T07:37:59;1.65;;;1.15;;
30519;SDS011;17300;50.374;8.006;2023-06-04T07:40:27;1.10;;;1.00;;
30519;SDS011;17300;50.374;8.006;2023-06-04T07:42:54;1.33;;;1.05;;
30519;SDS011;17300;50.374;8.006;2023-06-04T07:45:20;1.05;;;1.05;;
30519;SDS011;17300;50.374;8.006;2023-06-04T07:47:47;0.90;;;0.90;;
30519;SDS011;17300;50.374;8.006;2023-06-04T07:50:14;1.30;;;1.00;;
30519;SDS011;17300;50.374;8.006;2023-06-04T07:52:41;1.00;;;0.90;;
30519;SDS011;17300;50.374;8.006;2023-06-04T07:55:08;0.90;;;0.90;;
30519;SDS011;17300;50.374;8.006;2023-06-04T07:57:36;1.08;;;1.08;;
30519;SDS011;17300;50.374;8.006;2023-06-04T08:00:03;2.10;;;1.00;;
30519;SDS011;17300;50.374;8.006;2023-06-04T08:02:33;2.33;;;1.20;;
30519;SDS011;17300;50.374;8.006;2023-06-04T08:05:00;1.98;;;1.00;;
30519;SDS011;17300;50.374;8.006;2023-06-04T08:07:27;1.20;;;1.10;;
30519;SDS011;17300;50.374;8.006;2023-06-04T08:09:54;2.30;;;1.00;;
30519;SDS011;17300;50.374;8.006;2023-06-04T08:12:21;1.98;;;1.15;;
30519;SDS011;17300;50.374;8.006;2023-06-04T08:14:49;1.33;;;1.20;;
30519;SDS011;17300;50.374;8.006;2023-06-04T08:17:16;1.40;;;1.02;;
30519;SDS011;17300;50.374;8.006;2023-06-04T08:19:42;1.73;;;1.05;;
30519;SDS011;17300;50.374;8.006;2023-06-04T08:22:09;1.52;;;1.15;;
30519;SDS011;17300;50.374;8.006;2023-06-04T08:24:36;2.20;;;1.20;;
30519;SDS011;17300;50.374;8.006;2023-06-04T08:27:03;1.58;;;0.90;;
30519;SDS011;17300;50.374;8.006;2023-06-04T08:29:30;1.23;;;1.00;;
30519;SDS011;17300;50.374;8.006;2023-06-04T08:31:58;1.50;;;1.40;;
30519;SDS011;17300;50.374;8.006;2023-06-04T08:34:26;1.20;;;1.13;;
30519;SDS011;17300;50.374;8.006;2023-06-04T08:36:53;1.80;;;1.08;;
30519;SDS011;17300;50.374;8.006;2023-06-04T08:39:20;0.93;;;0.93;;
30519;SDS011;17300;50.374;8.006;2023-06-04T08:41:48;1.80;;;1.20;;
30519;SDS011;17300;50.374;8.006;2023-06-04T08:44:17;1.00;;;1.00;;
30519;SDS011;17300;50.374;8.006;2023-06-04T08:46:44;1.00;;;1.00;;
30519;SDS011;17300;50.374;8.006;2023-06-04T08:49:14;0.90;;;0.90;;
30519;SDS011;17300;50.374;8.006;2023-06-04T08:51:42;2.25;;;1.15;;
30519;SDS011;17300;50.374;8.006;2023-06-04T08:54:09;1.10;;;1.08;;
30519;SDS011;17300;50.374;8.006;2023-06-04T08:56:35;1.67;;;1.00;;
30519;SDS011;17300;50.374;8.006;2023-06-04T08:59:03;1.10;;;1.00;;
30519;SDS011;17300;50.374;8.006;2023-06-04T09:01:31;1.13;;;1.00;;
30519;SDS011;17300;50.374;8.006;2023-06-04T09:03:59;1.80;;;1.00;;
30519;SDS011;17300;50.374;8.006;2023-06-04T09:06:30;1.20;;;0.80;;
30519;SDS011;17300;50.374;8.006;2023-06-04T09:08:59;0.93;;;0.88;;
30519;SDS011;17300;50.374;8.006;2023-06-04T09:11:31;3.45;;;1.05;;
30519;SDS011;17300;50.374;8.006;2023-06-04T09:14:01;1.63;;;1.10;;
30519;SDS011;17300;50.374;8.006;2023-06-04T09:16:41;1.20;;;1.00;;
30519;SDS011;17300;50.374;8.006;2023-06-04T09:19:09;1.08;;;1.02;;
30519;SDS011;17300;50.374;8.006;2023-06-04T09:21:46;0.85;;;0.85;;
30519;SDS011;17300;50.374;8.006;2023-06-04T09:24:14;1.13;;;1.10;;
30519;SDS011;17300;50.374;8.006;2023-06-04T09:26:41;1.83;;;1.10;;
30519;SDS011;17300;50.374;8.006;2023-06-04T09:29:07;0.98;;;0.98;;
30519;SDS011;17300;50.374;8.006;2023-06-04T09:31:35;0.90;;;0.90;;
30519;SDS011;17300;50.374;8.006;2023-06-04T09:34:02;1.88;;;0.88;;
30519;SDS011;17300;50.374;8.006;2023-06-04T09:36:30;1.20;;;0.90;;
30519;SDS011;17300;50.374;8.006;2023-06-04T09:38:58;0.77;;;0.77;;
30519;SDS011;17300;50.374;8.006;2023-06-04T09:41:26;1.08;;;1.00;;
30519;SDS011;17300;50.374;8.006;2023-06-04T09:43:58;1.02;;;1.02;;
30519;SDS011;17300;50.374;8.006;2023-06-04T09:46:27;0.80;;;0.80;;
30519;SDS011;17300;50.374;8.006;2023-06-04T09:48:59;1.02;;;0.93;;
30519;SDS011;17300;50.374;8.006;2023-06-04T09:51:26;1.00;;;1.00;;
30519;SDS011;17300;50.374;8.006;2023-06-04T09:53:53;0.98;;;0.82;;
30519;SDS011;17300;50.374;8.006;2023-06-04T09:56:22;0.88;;;0.88;;
30519;SDS011;17300;50.374;8.006;2023-06-04T09:58:49;1.33;;;0.95;;
30519;SDS011;17300;50.374;8.006;2023-06-04T10:01:19;0.90;;;0.82;;
30519;SDS011;17300;50.374;8.006;2023-06-04T10:03:47;1.13;;;1.00;;
30519;SDS011;17300;50.374;8.006;2023-06-04T10:06:16;0.88;;;0.88;;
30519;SDS011;17300;50.374;8.006;2023-06-04T10:08:45;1.05;;;1.00;;
30519;SDS011;17300;50.374;8.006;2023-06-04T10:11:13;1.30;;;1.00;;
30519;SDS011;17300;50.374;8.006;2023-06-04T10:13:45;1.42;;;0.90;;
30519;SDS011;17300;50.374;8.006;2023-06-04T10:16:14;1.10;;;0.82;;
30519;SDS011;17300;50.374;8.006;2023-06-04T10:18:41;1.85;;;0.80;;
30519;SDS011;17300;50.374;8.006;2023-06-04T10:21:09;0.82;;;0.82;;
30519;SDS011;17300;50.374;8.006;2023-06-04T10:23:39;2.22;;;0.98;;
30519;SDS011;17300;50.374;8.006;2023-06-04T10:26:06;1.40;;;0.90;;
30519;SDS011;17300;50.374;8.006;2023-06-04T10:28:34;0.90;;;0.90;;
30519;SDS011;17300;50.374;8.006;2023-06-04T10:31:02;0.80;;;0.80;;
30519;SDS011;17300;50.374;8.006;2023-06-04T10:33:29;0.80;;;0.80;;
30519;SDS011;17300;50.374;8.006;2023-06-04T10:35:56;1.13;;;0.95;;
30519;SDS011;17300;50.374;8.006;2023-06-04T10:38:22;1.67;;;1.00;;
30519;SDS011;17300;50.374;8.006;2023-06-04T10:40:50;1.08;;;1.00;;
30519;SDS011;17300;50.374;8.006;2023-06-04T10:43:17;1.00;;;0.93;;
30519;SDS011;17300;50.374;8.006;2023-06-04T10:45:45;1.08;;;0.90;;
30519;SDS011;17300;50.374;8.006;2023-06-04T10:48:13;1.02;;;0.93;;
30519;SDS011;17300;50.374;8.006;2023-06-04T10:50:49;1.20;;;1.10;;
30519;SDS011;17300;50.374;8.006;2023-06-04T10:53:17;1.63;;;1.00;;
30519;SDS011;17300;50.374;8.006;2023-06-04T10:55:45;2.10;;;1.00;;
30519;SDS011;17300;50.374;8.006;2023-06-04T10:58:13;2.83;;;1.20;;
30519;SDS011;17300;50.374;8.006;2023-06-04T11:00:40;1.40;;;1.20;;
30519;SDS011;17300;50.374;8.006;2023-06-04T11:03:08;2.00;;;1.05;;
30519;SDS011;17300;50.374;8.006;2023-06-04T11:05:37;1.05;;;0.95;;
30519;SDS011;17300;50.374;8.006;2023-06-04T11:08:05;1.70;;;0.95;;
30519;SDS011;17300;50.374;8.006;2023-06-04T11:10:33;0.95;;;0.88;;
30519;SDS011;17300;50.374;8.006;2023-06-04T11:13:01;1.00;;;1.00;;
30519;SDS011;17300;50.374;8.006;2023-06-04T11:15:37;0.80;;;0.80;;
30519;SDS011;17300;50.374;8.006;2023-06-04T11:18:05;0.88;;;0.88;;
30519;SDS011;17300;50.374;8.006;2023-06-04T11:20:31;1.00;;;1.00;;
30519;SDS011;17300;50.374;8.006;2023-06-04T11:23:00;1.27;;;0.85;;
30519;SDS011;17300;50.374;8.006;2023-06-04T11:25:28;1.10;;;0.90;;
30519;SDS011;17300;50.374;8.006;2023-06-04T11:27:57;0.95;;;0.95;;
30519;SDS011;17300;50.374;8.006;2023-06-04T11:30:26;0.98;;;0.98;;
30519;SDS011;17300;50.374;8.006;2023-06-04T11:32:59;1.58;;;1.00;;
30519;SDS011;17300;50.374;8.006;2023-06-04T11:35:27;1.25;;;1.15;;
30519;SDS011;17300;50.374;8.006;2023-06-04T11:37:54;1.83;;;1.00;;
30519;SDS011;17300;50.374;8.006;2023-06-04T11:40:22;1.23;;;1.10;;
30519;SDS011;17300;50.374;8.006;2023-06-04T11:42:51;1.00;;;1.00;;
30519;SDS011;17300;50.374;8.006;2023-06-04T11:45:19;1.05;;;0.95;;
30519;SDS011;17300;50.374;8.006;2023-06-04T11:47:47;1.30;;;1.20;;
30519;SDS011;17300;50.374;8.006;2023-06-04T11:50:14;1.45;;;1.10;;
30519;SDS011;17300;50.374;8.006;2023-06-04T11:52:41;0.93;;;0.93;;
30519;SDS011;17300;50.374;8.006;2023-06-04T11:55:08;0.90;;;0.90;;
30519;SDS011;17300;50.374;8.006;2023-06-04T11:57:37;1.85;;;1.33;;
30519;SDS011;17300;50.374;8.006;2023-06-04T12:00:05;2.08;;;1.17;;
30519;SDS011;17300;50.374;8.006;2023-06-04T12:02:35;1.45;;;1.30;;
30519;SDS011;17300;50.374;8.006;2023-06-04T12:05:10;1.90;;;1.40;;
30519;SDS011;17300;50.374;8.006;2023-06-04T12:07:38;2.65;;;1.42;;
30519;SDS011;17300;50.374;8.006;2023-06-04T12:10:05;2.72;;;1.40;;
30519;SDS011;17300;50.374;8.006;2023-06-04T12:12:32;1.38;;;1.27;;
30519;SDS011;17300;50.374;8.006;2023-06-04T12:15:01;2.53;;;1.35;;
30519;SDS011;17300;50.374;8.006;2023-06-04T12:17:30;1.30;;;1.30;;
30519;SDS011;17300;50.374;8.006;2023-06-04T12:19:57;1.55;;;1.45;;
30519;SDS011;17300;50.374;8.006;2023-06-04T12:22:24;1.40;;;1.30;;
30519;SDS011;17300;50.374;8.006;2023-06-04T12:24:52;1.90;;;1.25;;
30519;SDS011;17300;50.374;8.006;2023-06-04T12:27:19;1.30;;;1.15;;
30519;SDS011;17300;50.374;8.006;2023-06-04T12:29:54;1.30;;;1.20;;
30519;SDS011;17300;50.374;8.006;2023-06-04T12:32:22;1.40;;;1.30;;
30519;SDS011;17300;50.374;8.006;2023-06-04T12:34:49;1.40;;;1.30;;
30519;SDS011;17300;50.374;8.006;2023-06-04T12:37:16;1.38;;;1.27;;
30519;SDS011;17300;50.374;8.006;2023-06-04T12:39:43;1.50;;;1.40;;
30519;SDS011;17300;50.374;8.006;2023-06-04T12:42:09;1.70;;;1.30;;
30519;SDS011;17300;50.374;8.006;2023-06-04T12:44:36;1.50;;;1.40;;
30519;SDS011;17300;50.374;8.006;2023-06-04T12:47:04;2.05;;;1.20;;
30519;SDS011;17300;50.374;8.006;2023-06-04T12:49:33;1.33;;;1.23;;
30519;SDS011;17300;50.374;8.006;2023-06-04T12:52:00;1.20;;;1.10;;
30519;SDS011;17300;50.374;8.006;2023-06-04T12:54:27;1.52;;;1.20;;
30519;SDS011;17300;50.374;8.006;2023-06-04T12:56:53;1.48;;;1.38;;
30519;SDS011;17300;50.374;8.006;2023-06-04T12:59:21;2.25;;;1.05;;
30519;SDS011;17300;50.374;8.006;2023-06-04T13:01:48;2.38;;;1.45;;
30519;SDS011;17300;50.374;8.006;2023-06-04T13:04:15;3.30;;;1.30;;
30519;SDS011;17300;50.374;8.006;2023-06-04T13:06:43;1.55;;;1.45;;
30519;SDS011;17300;50.374;8.006;2023-06-04T13:09:11;1.60;;;1.50;;
30519;SDS011;17300;50.374;8.006;2023-06-04T13:11:39;1.60;;;1.50;;
30519;SDS011;17300;50.374;8.006;2023-06-04T13:14:06;1.60;;;1.50;;
30519;SDS011;17300;50.374;8.006;2023-06-04T13:16:34;2.38;;;1.75;;
30519;SDS011;17300;50.374;8.006;2023-06-04T13:19:01;1.50;;;1.40;;
30519;SDS011;17300;50.374;8.006;2023-06-04T13:21:28;1.92;;;1.80;;
30519;SDS011;17300;50.374;8.006;2023-06-04T13:23:56;2.28;;;1.75;;
30519;SDS011;17300;50.374;8.006;2023-06-04T13:26:24;6.03;;;1.70;;
30519;SDS011;17300;50.374;8.006;2023-06-04T13:28:54;1.63;;;1.50;;
30519;SDS011;17300;50.374;8.006;2023-06-04T13:31:21;1.88;;;1.50;;
30519;SDS011;17300;50.374;8.006;2023-06-04T13:33:47;4.95;;;1.70;;
30519;SDS011;17300;50.374;8.006;2023-06-04T13:36:14;1.60;;;1.50;;
30519;SDS011;17300;50.374;8.006;2023-06-04T13:38:41;1.50;;;1.40;;
30519;SDS011;17300;50.374;8.006;2023-06-04T13:41:09;1.30;;;1.20;;
30519;SDS011;17300;50.374;8.006;2023-06-04T13:43:36;2.22;;;1.27;;
30519;SDS011;17300;50.374;8.006;2023-06-04T13:46:03;1.80;;;1.70;;
30519;SDS011;17300;50.374;8.006;2023-06-04T13:48:30;1.70;;;1.60;;
30519;SDS011;17300;50.374;8.006;2023-06-04T13:50:57;2.28;;;1.60;;
30519;SDS011;17300;50.374;8.006;2023-06-04T13:53:24;1.85;;;1.42;;
30519;SDS011;17300;50.374;8.006;2023-06-04T13:55:50;1.52;;;1.42;;
30519;SDS011;17300;50.374;8.006;2023-06-04T13:58:24;4.53;;;2.10;;
30519;SDS011;17300;50.374;8.006;2023-06-04T14:00:50;2.25;;;1.65;;
30519;SDS011;17300;50.374;8.006;2023-06-04T14:03:17;2.33;;;1.73;;
30519;SDS011;17300;50.374;8.006;2023-06-04T14:05:44;1.70;;;1.60;;
30519;SDS011;17300;50.374;8.006;2023-06-04T14:08:11;1.70;;;1.60;;
30519;SDS011;17300;50.374;8.006;2023-06-04T14:10:37;1.73;;;1.63;;
30519;SDS011;17300;50.374;8.006;2023-06-04T14:13:06;1.60;;;1.50;;
30519;SDS011;17300;50.374;8.006;2023-06-04T14:15:35;1.60;;;1.50;;
30519;SDS011;17300;50.374;8.006;2023-06-04T14:18:01;2.00;;;1.83;;
30519;SDS011;17300;50.374;8.006;2023-06-04T14:20:29;1.75;;;1.65;;
30519;SDS011;17300;50.374;8.006;2023-06-04T14:22:56;1.75;;;1.60;;
30519;SDS011;17300;50.374;8.006;2023-06-04T14:25:23;1.88;;;1.77;;
30519;SDS011;17300;50.374;8.006;2023-06-04T14:27:50;2.38;;;1.90;;
30519;SDS011;17300;50.374;8.006;2023-06-04T14:30:16;2.72;;;1.85;;
30519;SDS011;17300;50.374;8.006;2023-06-04T14:32:44;1.90;;;1.80;;
30519;SDS011;17300;50.374;8.006;2023-06-04T14:35:11;1.75;;;1.65;;
30519;SDS011;17300;50.374;8.006;2023-06-04T14:37:38;1.88;;;1.77;;
30519;SDS011;17300;50.374;8.006;2023-06-04T14:40:05;3.35;;;1.75;;
30519;SDS011;17300;50.374;8.006;2023-06-04T14:42:33;1.80;;;1.70;;
30519;SDS011;17300;50.374;8.006;2023-06-04T14:44:59;2.45;;;2.10;;
30519;SDS011;17300;50.374;8.006;2023-06-04T14:47:26;2.20;;;1.85;;
30519;SDS011;17300;50.374;8.006;2023-06-04T14:49:54;2.15;;;2.00;;